createdAt,value
2023-04-18T00:01:55.702Z,100.00
2023-04-18T00:04:23.829Z,100.00
2023-04-18T00:06:52.055Z,100.00
2023-04-18T00:09:20.053Z,100.00
2023-04-18T00:11:48.504Z,100.00
2023-04-18T00:14:16.599Z,100.00
2023-04-18T00:16:44.599Z,100.00
2023-04-18T00:19:12.643Z,100.00
2023-04-18T00:21:44.706Z,100.00
2023-04-18T00:24:13.136Z,100.00
2023-04-18T00:26:41.468Z,100.00
2023-04-18T00:29:09.284Z,100.00
2023-04-18T00:31:37.707Z,100.00
2023-04-18T00:34:05.621Z,100.00
2023-04-18T00:36:33.620Z,100.00
2023-04-18T00:39:01.633Z,100.00
2023-04-18T00:41:30.428Z,100.00
2023-04-18T00:43:58.348Z,100.00
2023-04-18T00:46:26.269Z,100.00
2023-04-18T00:48:54.503Z,100.00
2023-04-18T00:51:22.744Z,100.00
2023-04-18T00:53:51.330Z,100.00
2023-04-18T00:56:19.940Z,100.00
2023-04-18T00:58:47.784Z,100.00
2023-04-18T01:01:16.484Z,100.00
2023-04-18T01:03:45.581Z,100.00
2023-04-18T01:06:16.540Z,100.00
2023-04-18T01:08:45.898Z,100.00
2023-04-18T01:11:13.825Z,100.00
2023-04-18T01:13:42.180Z,100.00
2023-04-18T01:16:10.047Z,100.00
2023-04-18T01:18:40.242Z,100.00
2023-04-18T01:21:08.621Z,100.00
2023-04-18T01:23:36.738Z,100.00
2023-04-18T01:26:04.749Z,100.00
2023-04-18T01:28:37.045Z,100.00
2023-04-18T01:31:05.399Z,100.00
2023-04-18T01:33:33.505Z,100.00
2023-04-18T01:36:01.431Z,100.00
2023-04-18T01:38:33.126Z,100.00
2023-04-18T01:41:02.586Z,100.00
2023-04-18T01:43:30.808Z,100.00
2023-04-18T01:45:59.010Z,100.00
2023-04-18T01:48:27.016Z,100.00
2023-04-18T01:50:55.143Z,100.00
2023-04-18T01:53:24.863Z,100.00
2023-04-18T01:55:53.082Z,100.00
2023-04-18T01:58:23.679Z,100.00
2023-04-18T02:00:52.997Z,100.00
2023-04-18T02:03:22.579Z,100.00
2023-04-18T02:05:52.233Z,100.00
2023-04-18T02:08:20.188Z,100.00
2023-04-18T02:10:48.019Z,100.00
2023-04-18T02:13:15.979Z,100.00
2023-04-18T02:15:45.935Z,100.00
2023-04-18T02:18:17.476Z,100.00
2023-04-18T02:20:45.613Z,100.00
2023-04-18T02:23:13.510Z,100.00
2023-04-18T02:25:41.459Z,100.00
2023-04-18T02:28:10.677Z,100.00
2023-04-18T02:30:38.560Z,100.00
2023-04-18T02:33:06.571Z,100.00
2023-04-18T02:35:35.606Z,100.00
2023-04-18T02:38:03.548Z,100.00
2023-04-18T02:40:31.517Z,100.00
2023-04-18T02:43:02.108Z,100.00
2023-04-18T02:45:30.170Z,100.00
2023-04-18T02:47:59.605Z,100.00
2023-04-18T02:50:29.131Z,100.00
2023-04-18T02:52:57.341Z,100.00
2023-04-18T02:55:30.164Z,100.00
2023-04-18T02:57:59.623Z,100.00
2023-04-18T03:00:45.833Z,100.00
2023-04-18T03:03:36.774Z,100.00
2023-04-18T03:06:25.278Z,100.00
2023-04-18T03:08:55.092Z,100.00
2023-04-18T03:11:24.918Z,100.00
2023-04-18T03:13:54.105Z,100.00
2023-04-18T03:16:22.772Z,100.00
2023-04-18T03:18:50.814Z,100.00
2023-04-18T03:21:19.529Z,100.00
2023-04-18T03:23:47.630Z,100.00
2023-04-18T03:26:16.071Z,100.00
2023-04-18T03:28:51.979Z,100.00
2023-04-18T03:31:20.612Z,100.00
2023-04-18T03:33:49.143Z,100.00
2023-04-18T03:36:18.145Z,100.00
2023-04-18T03:38:46.804Z,100.00
2023-04-18T03:41:15.845Z,100.00
2023-04-18T03:43:44.178Z,100.00
2023-04-18T03:46:12.882Z,100.00
2023-04-18T03:48:40.933Z,100.00
2023-04-18T03:51:10.420Z,100.00
2023-04-18T03:53:39.105Z,100.00
2023-04-18T03:56:07.220Z,100.00
2023-04-18T03:58:48.960Z,100.00
2023-04-18T04:05:25.715Z,100.00
2023-04-18T04:07:54.168Z,100.00
2023-04-18T04:10:22.089Z,100.00
2023-04-18T04:12:50.323Z,100.00
2023-04-18T04:15:18.962Z,100.00
2023-04-18T04:17:51.840Z,100.00
2023-04-18T04:20:25.030Z,100.00
2023-04-18T04:23:00.015Z,100.00
2023-04-18T04:25:31.130Z,100.00
2023-04-18T04:28:01.892Z,100.00
2023-04-18T04:34:38.190Z,100.00
2023-04-18T04:37:08.308Z,100.00
2023-04-18T04:39:41.814Z,100.00
2023-04-18T04:42:25.387Z,100.00
2023-04-18T04:44:58.688Z,100.00
2023-04-18T04:47:26.842Z,100.00
2023-04-18T04:49:55.113Z,100.00
2023-04-18T04:52:23.083Z,100.00
2023-04-18T04:54:51.659Z,100.00
2023-04-18T04:57:20.831Z,100.00
2023-04-18T04:59:48.874Z,100.00
2023-04-18T05:02:17.253Z,100.00
2023-04-18T05:04:45.421Z,100.00
2023-04-18T05:07:13.414Z,100.00
2023-04-18T05:09:41.229Z,100.00
2023-04-18T05:12:09.194Z,100.00
2023-04-18T05:14:37.164Z,100.00
2023-04-18T05:17:05.402Z,100.00
2023-04-18T05:19:33.328Z,100.00
2023-04-18T05:22:01.294Z,100.00
2023-04-18T05:24:29.770Z,100.00
2023-04-18T05:26:57.845Z,100.00
2023-04-18T05:29:25.925Z,100.00
2023-04-18T05:31:54.399Z,100.00
2023-04-18T05:34:22.314Z,100.00
2023-04-18T05:36:52.090Z,100.00
2023-04-18T05:39:20.149Z,100.00
2023-04-18T05:41:48.196Z,100.00
2023-04-18T05:44:17.360Z,100.00
2023-04-18T05:46:45.884Z,100.00
2023-04-18T05:49:13.973Z,100.00
2023-04-18T05:51:41.863Z,100.00
2023-04-18T05:54:10.041Z,100.00
2023-04-18T05:56:39.025Z,100.00
2023-04-18T05:59:06.891Z,100.00
2023-04-18T06:01:34.815Z,100.00
2023-04-18T06:04:02.954Z,100.00
2023-04-18T06:06:31.595Z,100.00
2023-04-18T06:08:59.426Z,100.00
2023-04-18T06:11:28.502Z,100.00
2023-04-18T06:13:56.387Z,100.00
2023-04-18T06:16:24.313Z,100.00
2023-04-18T06:18:52.136Z,100.00
2023-04-18T06:21:20.943Z,100.00
2023-04-18T06:23:48.861Z,100.00
2023-04-18T06:26:17.366Z,100.00
2023-04-18T06:28:45.443Z,100.00
2023-04-18T06:31:13.410Z,100.00
2023-04-18T06:33:41.387Z,100.00
2023-04-18T06:36:09.909Z,100.00
2023-04-18T06:38:37.846Z,100.00
2023-04-18T06:41:05.842Z,100.00
2023-04-18T06:43:36.308Z,100.00
2023-04-18T06:46:05.432Z,100.00
2023-04-18T06:48:33.469Z,100.00
2023-04-18T06:51:01.561Z,100.00
2023-04-18T06:53:29.622Z,100.00
2023-04-18T06:55:57.610Z,100.00
2023-04-18T06:58:25.692Z,100.00
2023-04-18T07:00:54.208Z,100.00
2023-04-18T07:03:22.249Z,100.00
2023-04-18T07:05:50.795Z,100.00
2023-04-18T07:08:18.897Z,100.00
2023-04-18T07:10:46.870Z,100.00
2023-04-18T07:13:14.825Z,100.00
2023-04-18T07:15:42.945Z,100.00
2023-04-18T07:18:11.032Z,100.00
2023-04-18T07:20:39.087Z,100.00
2023-04-18T07:23:07.550Z,100.00
2023-04-18T07:25:35.985Z,100.00
2023-04-18T07:28:04.540Z,100.00
2023-04-18T07:30:32.516Z,100.00
2023-04-18T07:33:03.242Z,100.00
2023-04-18T07:35:31.500Z,100.00
2023-04-18T07:37:59.412Z,100.00
2023-04-18T07:40:27.470Z,100.00
2023-04-18T07:42:55.464Z,100.00
2023-04-18T07:45:23.434Z,100.00
2023-04-18T07:47:51.788Z,100.00
2023-04-18T07:50:19.837Z,100.00
2023-04-18T07:52:48.254Z,100.00
2023-04-18T07:55:16.444Z,100.00
2023-04-18T07:57:50.202Z,100.00
2023-04-18T08:00:18.725Z,100.00
2023-04-18T08:02:46.762Z,100.00
2023-04-18T08:05:14.840Z,100.00
2023-04-18T08:07:43.381Z,100.00
2023-04-18T08:10:11.705Z,100.00
2023-04-18T08:12:39.796Z,100.00
2023-04-18T08:15:08.600Z,100.00
2023-04-18T08:17:37.730Z,100.00
2023-04-18T08:20:06.471Z,100.00
2023-04-18T08:22:34.404Z,100.00
2023-04-18T08:25:05.595Z,100.00
2023-04-18T08:27:33.874Z,100.00
2023-04-18T08:30:04.160Z,100.00
2023-04-18T08:32:32.294Z,100.00
2023-04-18T08:35:00.895Z,100.00
2023-04-18T08:37:29.280Z,100.00
2023-04-18T08:39:57.316Z,100.00
2023-04-18T08:42:25.533Z,100.00
2023-04-18T08:44:54.085Z,100.00
2023-04-18T08:47:22.249Z,100.00
2023-04-18T08:49:52.209Z,100.00
2023-04-18T08:52:21.597Z,100.00
2023-04-18T08:54:51.041Z,100.00
2023-04-18T08:57:28.547Z,100.00
2023-04-18T09:00:00.687Z,100.00
2023-04-18T09:02:42.759Z,100.00
2023-04-18T09:05:21.650Z,100.00
2023-04-18T09:07:51.477Z,100.00
2023-04-18T09:10:30.955Z,100.00
2023-04-18T09:13:01.083Z,99.94
2023-04-18T09:15:30.355Z,100.00
2023-04-18T09:18:01.656Z,100.00
2023-04-18T09:20:41.182Z,99.88
2023-04-18T09:23:21.715Z,99.75
2023-04-18T09:25:52.159Z,97.37
2023-04-18T09:28:28.055Z,96.49
2023-04-18T09:30:58.222Z,97.53
2023-04-18T09:33:33.881Z,94.09
2023-04-18T09:36:21.266Z,92.77
2023-04-18T09:38:52.524Z,94.24
2023-04-18T09:41:23.170Z,96.70
2023-04-18T09:44:12.382Z,97.41
2023-04-18T09:46:44.466Z,98.07
2023-04-18T09:49:14.778Z,96.43
2023-04-18T09:51:46.843Z,95.91
2023-04-18T09:54:16.458Z,91.99
2023-04-18T09:56:45.959Z,90.90
2023-04-18T09:59:18.652Z,92.66
2023-04-18T10:01:49.741Z,92.25
2023-04-18T10:04:19.187Z,92.59
2023-04-18T10:06:47.376Z,90.12
2023-04-18T10:09:16.538Z,89.00
2023-04-18T10:11:46.974Z,91.06
2023-04-18T10:14:16.749Z,93.51
2023-04-18T10:16:45.812Z,90.12
2023-04-18T10:19:25.430Z,89.21
2023-04-18T10:21:55.190Z,88.01
2023-04-18T10:24:41.901Z,88.89
2023-04-18T10:27:09.766Z,88.82
2023-04-18T10:29:55.868Z,84.36
2023-04-18T10:32:23.706Z,79.32
2023-04-18T10:34:53.586Z,78.58
2023-04-18T10:37:21.538Z,80.57
2023-04-18T10:40:00.422Z,82.25
2023-04-18T10:42:46.883Z,80.90
2023-04-18T10:45:21.547Z,76.64
2023-04-18T10:47:49.836Z,74.80
2023-04-18T10:50:17.715Z,71.65
2023-04-18T10:52:45.690Z,70.90
2023-04-18T10:55:16.944Z,72.62
2023-04-18T10:57:46.502Z,72.28
2023-04-18T11:04:36.309Z,68.19
2023-04-18T11:07:05.067Z,69.07
2023-04-18T11:09:33.151Z,66.63
2023-04-18T11:12:06.473Z,67.33
2023-04-18T11:14:48.570Z,68.49
2023-04-18T11:17:20.403Z,67.61
2023-04-18T11:19:48.458Z,68.74
2023-04-18T11:22:18.900Z,69.49
2023-04-18T11:24:46.646Z,69.07
2023-04-18T11:27:14.476Z,69.23
2023-04-18T11:29:42.567Z,68.54
2023-04-18T11:32:10.559Z,70.25
2023-04-18T11:34:38.383Z,71.68
2023-04-18T11:37:07.364Z,72.20
2023-04-18T11:39:36.403Z,72.21
2023-04-18T11:42:04.297Z,72.04
2023-04-18T11:44:33.771Z,71.65
2023-04-18T11:47:03.302Z,69.55
2023-04-18T11:49:32.249Z,68.25
2023-04-18T11:52:01.248Z,63.32
2023-04-18T11:54:42.396Z,61.87
2023-04-18T11:57:21.055Z,62.20
2023-04-18T11:59:59.131Z,64.25
2023-04-18T12:02:28.272Z,64.35
2023-04-18T12:04:58.284Z,66.76
2023-04-18T12:07:30.796Z,69.16
2023-04-18T12:09:58.788Z,69.60
2023-04-18T12:12:26.713Z,70.53
2023-04-18T12:15:01.918Z,71.27
2023-04-18T12:17:31.037Z,70.85
2023-04-18T12:20:03.962Z,72.11
2023-04-18T12:22:38.932Z,73.42
2023-04-18T12:25:10.382Z,72.84
2023-04-18T12:27:48.126Z,73.01
2023-04-18T12:30:16.067Z,73.29
2023-04-18T12:32:44.943Z,73.13
2023-04-18T12:35:12.787Z,73.80
2023-04-18T12:37:40.622Z,72.91
2023-04-18T12:40:08.876Z,72.50
2023-04-18T12:42:36.836Z,72.55
2023-04-18T12:45:07.676Z,72.92
2023-04-18T12:47:35.850Z,72.85
2023-04-18T12:50:04.092Z,71.89
2023-04-18T12:52:31.891Z,71.24
2023-04-18T12:55:00.055Z,72.13
2023-04-18T12:57:29.415Z,73.05
2023-04-18T12:59:58.272Z,72.55
2023-04-18T13:02:28.916Z,74.27
2023-04-18T13:05:18.483Z,74.62
2023-04-18T13:07:49.360Z,73.89
2023-04-18T13:10:18.562Z,73.53
2023-04-18T13:12:46.852Z,71.38
2023-04-18T13:15:16.017Z,70.98
2023-04-18T13:17:44.392Z,70.33
2023-04-18T13:20:12.683Z,70.95
2023-04-18T13:22:41.002Z,70.17
2023-04-18T13:25:12.869Z,70.59
2023-04-18T13:27:42.100Z,71.53
2023-04-18T13:30:10.839Z,70.97
2023-04-18T13:32:40.366Z,70.10
2023-04-18T13:35:09.538Z,69.91
2023-04-18T13:37:37.947Z,70.72
2023-04-18T13:40:12.707Z,70.13
2023-04-18T13:42:40.556Z,68.32
2023-04-18T13:45:08.835Z,67.87
2023-04-18T13:47:37.550Z,69.31
2023-04-18T13:50:06.178Z,68.74
2023-04-18T13:52:34.129Z,67.43
2023-04-18T13:55:02.093Z,69.50
2023-04-18T13:57:32.259Z,69.97
2023-04-18T14:00:00.380Z,69.92
2023-04-18T14:02:28.359Z,68.17
2023-04-18T14:05:16.503Z,68.78
2023-04-18T14:07:44.987Z,69.38
2023-04-18T14:10:12.935Z,68.28
2023-04-18T14:12:41.018Z,67.97
2023-04-18T14:15:09.779Z,68.26
2023-04-18T14:17:37.786Z,67.21
2023-04-18T14:20:06.653Z,67.26
2023-04-18T14:22:34.868Z,65.79
2023-04-18T14:25:02.864Z,66.10
2023-04-18T14:27:31.489Z,65.90
2023-04-18T14:29:59.850Z,66.88
2023-04-18T14:32:27.794Z,66.70
2023-04-18T14:34:55.721Z,67.00
2023-04-18T14:37:23.815Z,66.28
2023-04-18T14:39:51.809Z,65.78
2023-04-18T14:42:19.701Z,65.54
2023-04-18T14:44:47.603Z,65.33
2023-04-18T14:47:15.902Z,64.64
2023-04-18T14:49:43.754Z,65.63
2023-04-18T14:52:11.730Z,65.38
2023-04-18T14:54:39.642Z,65.11
2023-04-18T14:57:08.468Z,64.90
2023-04-18T14:59:36.916Z,64.03
2023-04-18T15:02:05.011Z,64.65
2023-04-18T15:04:33.210Z,64.94
2023-04-18T15:07:01.855Z,64.63
2023-04-18T15:09:29.819Z,65.36
2023-04-18T15:11:58.379Z,65.78
2023-04-18T15:14:26.310Z,66.76
2023-04-18T15:16:54.253Z,66.41
2023-04-18T15:19:22.265Z,65.81
2023-04-18T15:21:51.559Z,64.45
2023-04-18T15:24:19.510Z,64.62
2023-04-18T15:26:47.933Z,64.34
2023-04-18T15:29:15.918Z,65.87
2023-04-18T15:31:44.014Z,65.56
2023-04-18T15:34:12.112Z,65.72
2023-04-18T15:36:40.183Z,65.86
2023-04-18T15:39:09.198Z,65.97
2023-04-18T15:41:37.558Z,65.37
2023-04-18T15:44:11.370Z,66.10
2023-04-18T15:46:39.362Z,65.88
2023-04-18T15:49:07.265Z,65.47
2023-04-18T15:51:35.047Z,64.93
2023-04-18T15:54:03.104Z,65.11
2023-04-18T15:56:33.659Z,64.26
2023-04-18T15:59:04.417Z,63.05
2023-04-18T16:01:33.656Z,62.83
2023-04-18T16:04:01.741Z,62.28
2023-04-18T16:06:31.435Z,62.84
2023-04-18T16:08:59.441Z,62.28
2023-04-18T16:11:27.669Z,62.33
2023-04-18T16:14:25.958Z,62.17
2023-04-18T16:16:54.986Z,61.72
2023-04-18T16:19:23.166Z,61.87
2023-04-18T16:21:51.301Z,61.86
2023-04-18T16:24:19.162Z,62.54
2023-04-18T16:26:47.024Z,62.20
2023-04-18T16:29:15.735Z,60.94
2023-04-18T16:31:43.768Z,60.88
2023-04-18T16:34:11.749Z,61.62
2023-04-18T16:36:40.208Z,62.15
2023-04-18T16:39:08.245Z,62.25
2023-04-18T16:41:36.254Z,62.26
2023-04-18T16:44:04.377Z,62.34
2023-04-18T16:46:32.398Z,63.05
2023-04-18T16:49:01.623Z,63.27
2023-04-18T16:51:30.977Z,62.90
2023-04-18T16:53:59.208Z,62.86
2023-04-18T16:56:27.026Z,63.71
2023-04-18T16:58:54.923Z,63.79
2023-04-18T17:01:23.251Z,64.16
2023-04-18T17:03:51.631Z,64.63
2023-04-18T17:06:19.603Z,64.67
2023-04-18T17:08:48.927Z,64.97
2023-04-18T17:11:16.887Z,65.01
2023-04-18T17:13:44.957Z,65.46
2023-04-18T17:16:12.896Z,65.93
2023-04-18T17:18:41.776Z,66.09
2023-04-18T17:21:12.521Z,66.32
2023-04-18T17:23:42.529Z,66.25
2023-04-18T17:26:10.568Z,66.45
2023-04-18T17:28:38.589Z,66.94
2023-04-18T17:31:06.639Z,66.97
2023-04-18T17:33:34.606Z,66.96
2023-04-18T17:36:04.327Z,67.44
2023-04-18T17:38:34.034Z,67.50
2023-04-18T17:41:04.565Z,68.00
2023-04-18T17:43:32.794Z,68.35
2023-04-18T17:46:01.409Z,68.47
2023-04-18T17:48:29.670Z,68.50
2023-04-18T17:50:57.637Z,68.51
2023-04-18T17:53:25.630Z,68.78
2023-04-18T17:55:55.375Z,68.84
2023-04-18T17:58:23.347Z,69.19
2023-04-18T18:00:51.865Z,70.01
2023-04-18T18:03:20.361Z,69.80
2023-04-18T18:05:49.591Z,69.96
2023-04-18T18:08:17.459Z,69.82
2023-04-18T18:10:47.076Z,70.11
2023-04-18T18:13:15.725Z,70.51
2023-04-18T18:15:43.708Z,70.50
2023-04-18T18:18:11.717Z,70.42
2023-04-18T18:20:42.829Z,70.81
2023-04-18T18:23:11.093Z,70.85
2023-04-18T18:25:39.142Z,71.12
2023-04-18T18:28:07.272Z,71.27
2023-04-18T18:30:37.362Z,71.49
2023-04-18T18:33:05.728Z,71.83
2023-04-18T18:35:33.561Z,72.04
2023-04-18T18:38:01.502Z,72.33
2023-04-18T18:40:29.798Z,72.86
2023-04-18T18:42:58.214Z,73.02
2023-04-18T18:45:26.486Z,73.53
2023-04-18T18:47:54.888Z,74.03
2023-04-18T18:50:23.395Z,73.79
2023-04-18T18:52:51.379Z,73.90
2023-04-18T18:55:19.353Z,74.41
2023-04-18T18:57:48.235Z,74.55
2023-04-18T19:04:56.260Z,75.88
2023-04-18T19:07:23.013Z,75.72
2023-04-18T19:09:49.604Z,75.53
2023-04-18T19:12:15.964Z,75.67
2023-04-18T19:14:42.533Z,75.31
2023-04-18T19:17:09.051Z,75.01
2023-04-18T19:19:36.168Z,75.06
2023-04-18T19:22:02.702Z,74.95
2023-04-18T19:24:31.056Z,75.36
2023-04-18T19:26:58.945Z,75.18
2023-04-18T19:29:26.050Z,75.25
2023-04-18T19:31:52.840Z,75.37
2023-04-18T19:34:21.243Z,75.40
2023-04-18T19:36:47.860Z,75.47
2023-04-18T19:39:14.547Z,75.47
2023-04-18T19:41:41.176Z,75.69
2023-04-18T19:44:08.015Z,75.57
2023-04-18T19:46:34.546Z,75.87
2023-04-18T19:49:00.964Z,75.87
2023-04-18T19:51:27.505Z,76.05
2023-04-18T19:53:54.885Z,75.92
2023-04-18T19:56:21.981Z,75.93
2023-04-18T19:58:48.548Z,76.01
2023-04-18T20:01:17.231Z,76.04
2023-04-18T20:03:43.953Z,75.95
2023-04-18T20:06:10.741Z,76.06
2023-04-18T20:08:40.708Z,76.48
2023-04-18T20:11:08.847Z,76.74
2023-04-18T20:13:36.824Z,77.02
2023-04-18T20:16:04.599Z,77.39
2023-04-18T20:18:31.495Z,77.76
2023-04-18T20:20:58.023Z,78.26
2023-04-18T20:23:24.984Z,77.95
2023-04-18T20:25:51.552Z,78.08
2023-04-18T20:28:17.924Z,78.22
2023-04-18T20:30:44.975Z,78.02
2023-04-18T20:33:11.464Z,78.06
2023-04-18T20:35:38.286Z,78.13
2023-04-18T20:38:06.603Z,78.74
2023-04-18T20:40:33.606Z,78.12
2023-04-18T20:43:02.437Z,77.90
2023-04-18T20:45:29.530Z,78.09
2023-04-18T20:47:56.171Z,78.02
2023-04-18T20:50:22.588Z,78.15
2023-04-18T20:52:48.990Z,78.12
2023-04-18T20:55:16.307Z,78.82
2023-04-18T20:57:43.107Z,79.20
2023-04-18T21:00:10.391Z,80.05
2023-04-18T21:02:36.995Z,79.83
2023-04-18T21:05:04.141Z,80.74
2023-04-18T21:07:31.549Z,80.92
2023-04-18T21:09:58.190Z,81.60
2023-04-18T21:12:24.629Z,81.48
2023-04-18T21:14:51.177Z,81.54
2023-04-18T21:17:18.260Z,82.50
2023-04-18T21:19:48.333Z,82.62
2023-04-18T21:22:15.809Z,83.91
2023-04-18T21:24:43.387Z,83.63
2023-04-18T21:27:10.081Z,85.03
2023-04-18T21:29:38.214Z,85.45
2023-04-18T21:32:05.250Z,85.77
2023-04-18T21:34:31.773Z,85.99
2023-04-18T21:36:58.763Z,86.64
2023-04-18T21:39:26.414Z,86.48
2023-04-18T21:41:52.928Z,87.60
2023-04-18T21:44:19.562Z,88.19
2023-04-18T21:46:45.984Z,87.98
2023-04-18T21:49:12.779Z,90.67
2023-04-18T21:51:39.274Z,88.86
2023-04-18T21:54:07.152Z,90.53
2023-04-18T21:56:33.697Z,91.16
2023-04-18T21:59:00.247Z,92.01
2023-04-18T22:01:26.843Z,90.99
2023-04-18T22:03:54.314Z,92.60
2023-04-18T22:06:22.376Z,92.73
2023-04-18T22:08:49.292Z,92.76
2023-04-18T22:11:15.686Z,92.40
2023-04-18T22:13:44.211Z,92.13
2023-04-18T22:16:11.167Z,93.13
2023-04-18T22:18:38.181Z,92.67
2023-04-18T22:21:05.380Z,91.70
2023-04-18T22:23:32.704Z,92.15
2023-04-18T22:25:59.281Z,91.98
2023-04-18T22:28:27.270Z,92.60
2023-04-18T22:30:53.765Z,92.01
2023-04-18T22:33:20.714Z,92.18
2023-04-18T22:35:48.005Z,91.37
2023-04-18T22:38:14.649Z,91.96
2023-04-18T22:40:41.219Z,92.49
2023-04-18T22:43:07.637Z,92.54
2023-04-18T22:45:34.270Z,92.48
2023-04-18T22:48:01.078Z,92.95
2023-04-18T22:50:29.440Z,92.99
2023-04-18T22:52:56.657Z,92.85
2023-04-18T22:55:23.356Z,93.69
2023-04-18T22:57:49.971Z,94.18
2023-04-18T23:00:16.539Z,95.82
2023-04-18T23:02:42.975Z,96.10
2023-04-18T23:05:10.133Z,96.53
2023-04-18T23:07:36.621Z,95.74
2023-04-18T23:10:05.752Z,97.86
2023-04-18T23:12:32.269Z,97.83
2023-04-18T23:14:58.710Z,98.68
2023-04-18T23:17:25.207Z,98.86
2023-04-18T23:19:51.675Z,98.71
2023-04-18T23:22:18.203Z,99.61
2023-04-18T23:24:44.739Z,99.97
2023-04-18T23:27:11.073Z,100.00
2023-04-18T23:29:38.618Z,100.00
2023-04-18T23:32:05.815Z,100.00
2023-04-18T23:34:32.269Z,100.00
2023-04-18T23:36:59.893Z,100.00
2023-04-18T23:39:26.996Z,100.00
2023-04-18T23:41:53.646Z,100.00
2023-04-18T23:44:20.661Z,100.00
2023-04-18T23:46:47.331Z,100.00
2023-04-18T23:49:14.420Z,100.00
2023-04-18T23:51:40.867Z,100.00
2023-04-18T23:54:07.401Z,100.00
2023-04-18T23:56:34.159Z,100.00
2023-04-18T23:59:00.512Z,100.00
